Time;durP1;ratioP1;P1;durP2;ratioP2;P2;SDS_P1;SDS_P2;PMS_P1;PMS_P2;Temp;Humidity;BMP_temperature;BMP_pressure;BME280_temperature;BME280_humidity;BME280_pressure;Samples;Min_cycle;Max_cycle;Signal;HPM_P1;HPM_P2
2022/01/23 00:00:02;;;;;;;5.73;5.10;;;15.70;58.60;16.70;102647.00;;;;5018429;28;20156;-46
2022/01/23 00:02:28;;;;;;;6.20;4.90;;;15.70;58.90;16.70;102647.00;;;;5011963;28;20179;-45
2022/01/23 00:04:55;;;;;;;7.13;4.80;;;15.70;58.90;16.70;102645.00;;;;5009936;28;20230;-47
2022/01/23 00:07:21;;;;;;;5.27;4.77;;;15.60;58.80;16.70;102643.00;;;;5010284;28;20199;-47
2022/01/23 00:09:47;;;;;;;5.70;5.20;;;15.60;58.90;16.70;102651.00;;;;5010008;28;20187;-47
2022/01/23 00:12:17;;;;;;;4.83;4.43;;;15.60;58.70;16.70;102644.00;;;;5031144;28;20191;-45
2022/01/23 00:17:33;;;;;;;5.27;4.77;;;15.50;58.80;16.70;102655.00;;;;5029312;28;20292;-45
2022/01/23 00:20:00;;;;;;;5.20;4.70;;;15.60;58.80;16.70;102654.00;;;;5029610;28;20164;-46
2022/01/23 00:22:36;;;;;;;5.10;4.60;;;15.60;59.20;16.70;102644.00;;;;5029713;28;20175;-45
2022/01/23 00:30:32;;;;;;;4.63;4.23;;;15.50;59.10;16.60;102642.00;;;;5042992;28;20162;-46
2022/01/23 00:33:00;;;;;;;5.17;4.67;;;15.50;59.00;16.60;102638.00;;;;5045997;28;20233;-47
2022/01/23 00:35:26;;;;;;;4.83;4.43;;;15.50;59.10;16.60;102630.00;;;;5030182;28;20179;-46
2022/01/23 00:37:53;;;;;;;5.13;4.73;;;15.40;59.20;16.60;102631.00;;;;5030732;28;20190;-47
2022/01/23 00:40:19;;;;;;;4.50;4.20;;;15.40;59.30;16.50;102630.00;;;;5029999;28;20700;-46
2022/01/23 00:42:45;;;;;;;4.47;4.13;;;15.40;59.30;16.50;102617.00;;;;5030445;28;20518;-44
2022/01/23 00:45:26;;;;;;;4.87;4.47;;;15.40;59.30;16.50;102625.00;;;;5029524;28;20281;-46
2022/01/23 00:47:56;;;;;;;4.80;4.30;;;15.40;59.30;16.50;102628.00;;;;5029097;28;20216;-46
2022/01/23 00:50:21;;;;;;;4.63;4.23;;;15.40;59.30;16.50;102615.00;;;;5027562;28;20171;-45
2022/01/23 00:52:47;;;;;;;4.90;4.50;;;15.30;59.20;16.50;102608.00;;;;5029252;28;20230;-46
2022/01/23 00:55:13;;;;;;;4.60;4.20;;;15.30;59.40;16.40;102614.00;;;;5028844;28;20182;-46
2022/01/23 00:57:39;;;;;;;4.60;4.20;;;15.30;59.40;16.40;102610.00;;;;5028580;28;20261;-46
2022/01/23 01:00:06;;;;;;;4.80;4.40;;;15.30;59.30;16.40;102616.00;;;;5028866;28;20255;-46
2022/01/23 01:02:32;;;;;;;4.60;4.20;;;15.30;59.20;16.40;102615.00;;;;5027815;28;20159;-46
2022/01/23 01:04:58;;;;;;;4.57;4.23;;;15.20;59.20;16.40;102607.00;;;;5028683;28;20167;-46
2022/01/23 01:07:23;;;;;;;4.60;4.20;;;15.20;59.40;16.40;102611.00;;;;5028438;28;20191;-46
2022/01/23 01:09:51;;;;;;;4.97;4.40;;;15.20;59.40;16.40;102619.00;;;;5028480;28;20183;-46
2022/01/23 01:12:22;;;;;;;4.60;4.30;;;15.20;59.50;16.40;102609.00;;;;5028863;28;20202;-46
2022/01/23 01:17:40;;;;;;;4.70;4.40;;;15.20;59.10;16.40;102617.00;;;;5028518;28;20206;-46
2022/01/23 01:31:20;;;;;;;5.00;4.60;;;15.20;59.10;16.30;102621.00;;;;5034300;28;20167;-45
2022/01/23 01:33:54;;;;;;;4.50;4.20;;;15.10;59.20;16.30;102620.00;;;;5028525;28;20245;-45
2022/01/23 01:38:45;;;;;;;4.40;4.10;;;15.10;59.20;16.20;102623.00;;;;5027894;28;20282;-45
2022/01/23 01:41:12;;;;;;;4.73;4.33;;;15.10;59.20;16.20;102620.00;;;;5027959;28;20768;-46
2022/01/23 01:43:37;;;;;;;4.60;4.20;;;15.10;59.30;16.20;102616.00;;;;5027888;28;20288;-47
2022/01/23 01:46:03;;;;;;;4.40;4.00;;;15.10;59.20;16.20;102630.00;;;;5028170;28;20167;-46
2022/01/23 01:48:29;;;;;;;4.80;4.40;;;15.10;59.30;16.20;102617.00;;;;5027631;28;20195;-46
2022/01/23 01:50:56;;;;;;;4.63;4.33;;;15.10;59.40;16.20;102613.00;;;;5027800;28;20329;-46
2022/01/23 01:53:22;;;;;;;4.67;4.27;;;15.00;59.20;16.20;102614.00;;;;5028052;28;20649;-45
2022/01/23 01:55:52;;;;;;;4.70;4.30;;;15.00;59.20;16.20;102618.00;;;;5026221;28;20275;-47
2022/01/23 01:58:57;;;;;;;4.63;4.33;;;15.00;59.20;16.20;102616.00;;;;5033730;28;20213;-46
2022/01/23 02:14:41;;;;;;;4.50;4.20;;;14.90;59.20;16.10;102600.00;;;;5047180;28;20170;-46
2022/01/23 02:17:25;;;;;;;4.43;4.07;;;14.90;59.20;16.10;102597.00;;;;5046293;28;20293;-46
2022/01/23 02:53:17;;;;;;;4.30;4.00;;;14.70;59.50;15.90;102600.00;;;;5047651;28;20252;-46
2022/01/23 02:55:43;;;;;;;4.80;4.40;;;14.70;59.40;15.90;102608.00;;;;5046147;28;20271;-46
2022/01/23 02:58:12;;;;;;;4.47;4.17;;;14.70;59.40;15.90;102592.00;;;;5046336;28;20252;-46
2022/01/23 03:00:48;;;;;;;4.30;4.00;;;14.70;59.50;15.90;102581.00;;;;5047014;28;20170;-46
2022/01/23 03:03:21;;;;;;;4.40;4.10;;;14.70;59.60;15.90;102594.00;;;;5047915;28;20165;-47
2022/01/23 03:06:08;;;;;;;4.30;4.00;;;14.70;59.50;15.90;102587.00;;;;5046625;28;20656;-46
2022/01/23 03:08:58;;;;;;;4.30;4.00;;;14.70;59.50;15.90;102587.00;;;;5050833;28;20299;-47
2022/01/23 03:11:57;;;;;;;4.43;4.10;;;14.70;59.80;15.90;102593.00;;;;5055763;28;20256;-45
2022/01/23 03:25:12;;;;;;;4.60;4.30;;;14.60;59.70;15.80;102608.00;;;;5050695;28;20272;-45
2022/01/23 03:30:21;;;;;;;4.50;4.20;;;14.60;60.40;15.70;102602.00;;;;5050386;28;20170;-46
2022/01/23 03:32:49;;;;;;;4.30;4.00;;;14.50;60.30;15.70;102611.00;;;;5049240;28;20673;-45
2022/01/23 03:35:15;;;;;;;4.50;4.20;;;14.60;60.40;15.70;102609.00;;;;5050254;28;20187;-45
2022/01/23 03:37:41;;;;;;;4.00;3.70;;;14.60;60.30;15.70;102610.00;;;;5050317;28;20226;-46
2022/01/23 03:40:08;;;;;;;4.43;4.13;;;14.60;60.10;15.70;102613.00;;;;5049934;28;20181;-46
2022/01/23 03:42:36;;;;;;;4.70;4.40;;;14.50;60.20;15.70;102607.00;;;;5050381;28;20170;-45
2022/01/23 03:45:57;;;;;;;4.20;3.90;;;14.60;60.30;15.70;102614.00;;;;5050069;28;20381;-44
2022/01/23 03:50:33;;;;;;;4.40;4.10;;;14.50;60.10;15.70;102600.00;;;;5049905;28;20174;-46
2022/01/23 03:52:58;;;;;;;4.37;3.97;;;14.50;60.80;15.70;102602.00;;;;5050059;28;20167;-45
2022/01/23 03:55:24;;;;;;;6.33;4.60;;;14.50;60.80;15.70;102606.00;;;;5049921;28;20589;-46
2022/01/23 03:57:50;;;;;;;6.87;4.40;;;14.50;61.60;15.70;102603.00;;;;5049753;28;20202;-46
2022/01/23 04:00:17;;;;;;;5.87;4.30;;;14.60;61.60;15.70;102618.00;;;;5049259;28;20236;-45
2022/01/23 04:02:43;;;;;;;5.07;4.67;;;14.60;60.90;15.70;102620.00;;;;5050134;28;20166;-45
2022/01/23 04:05:09;;;;;;;5.17;4.77;;;14.50;60.50;15.70;102617.00;;;;5054340;28;20173;-46
2022/01/23 04:07:36;;;;;;;5.37;4.77;;;14.50;60.30;15.70;102616.00;;;;5052769;28;20565;-46
2022/01/23 04:10:03;;;;;;;5.83;5.43;;;14.60;60.20;15.70;102625.00;;;;5049829;28;20177;-45
2022/01/23 04:15:44;;;;;;;6.50;5.90;;;14.50;59.90;15.70;102632.00;;;;5060568;28;20178;-47
2022/01/23 04:20:47;;;;;;;7.20;6.50;;;14.50;59.60;15.60;102648.00;;;;5050023;28;20240;-46
2022/01/23 04:32:04;;;;;;;7.77;7.07;;;14.40;59.50;15.60;102648.00;;;;5015462;28;20185;-46
2022/01/23 04:34:39;;;;;;;7.43;6.83;;;14.40;59.30;15.50;102646.00;;;;5049165;28;20320;-46
2022/01/23 04:45:24;;;;;;;8.10;7.40;;;14.40;59.30;15.50;102627.00;;;;5048850;28;20186;-46
2022/01/23 04:48:48;;;;;;;8.00;7.30;;;14.40;59.30;15.50;102633.00;;;;5049275;28;20240;-46
2022/01/23 05:04:51;;;;;;;8.90;7.87;;;14.30;59.20;15.40;102653.00;;;;5048075;28;20237;-46
2022/01/23 05:07:11;;;;;;;8.73;7.90;;;14.30;59.50;15.40;102645.00;;;;5045371;28;20340;-46
2022/01/23 05:09:37;;;;;;;9.27;8.43;;;14.30;59.40;15.40;102656.00;;;;5048569;28;20660;-46
2022/01/23 05:12:05;;;;;;;9.00;8.07;;;14.30;59.70;15.40;102646.00;;;;5051013;28;20220;-46
2022/01/23 05:14:37;;;;;;;9.70;8.70;;;14.30;59.70;15.40;102653.00;;;;5039128;28;20518;-45
2022/01/23 05:17:05;;;;;;;11.87;9.20;;;14.30;60.60;15.40;102645.00;;;;5028218;28;20218;-46
2022/01/23 05:19:32;;;;;;;10.53;8.50;;;14.30;60.20;15.40;102642.00;;;;5028445;28;20177;-46
2022/01/23 05:22:18;;;;;;;11.50;8.37;;;14.30;60.00;15.40;102639.00;;;;5028974;28;20253;-45
2022/01/23 05:24:51;;;;;;;11.13;8.90;;;14.30;59.90;15.40;102643.00;;;;5027754;28;20198;-47
2022/01/23 05:27:17;;;;;;;11.17;8.77;;;14.30;60.00;15.40;102635.00;;;;5026564;28;20206;-44
2022/01/23 05:29:43;;;;;;;9.47;8.63;;;14.30;60.10;15.40;102633.00;;;;5028283;28;20171;-45
2022/01/23 05:32:12;;;;;;;9.53;8.73;;;14.30;59.80;15.40;102631.00;;;;5028262;28;20182;-45
2022/01/23 05:34:38;;;;;;;9.63;8.70;;;14.20;59.60;15.40;102615.00;;;;5028533;28;20171;-46
2022/01/23 05:37:04;;;;;;;10.47;9.37;;;14.20;59.70;15.40;102640.00;;;;5027350;28;20198;-45
2022/01/23 05:39:32;;;;;;;9.90;8.90;;;14.20;59.80;15.40;102647.00;;;;5028168;28;20719;-46
2022/01/23 05:42:05;;;;;;;10.23;9.10;;;14.20;59.80;15.40;102632.00;;;;5026829;28;20638;-45
2022/01/23 05:44:30;;;;;;;9.33;8.50;;;14.20;59.80;15.30;102638.00;;;;5027640;28;20152;-45
2022/01/23 05:46:56;;;;;;;10.03;9.03;;;14.20;59.70;15.30;102640.00;;;;5027735;28;20276;-45
2022/01/23 05:49:22;;;;;;;10.60;8.53;;;14.20;59.50;15.40;102651.00;;;;5027578;28;20174;-46
2022/01/23 05:51:47;;;;;;;10.53;8.63;;;14.20;59.90;15.30;102649.00;;;;5027539;28;20182;-46
2022/01/23 05:54:13;;;;;;;9.73;7.93;;;14.10;59.90;15.30;102653.00;;;;5028037;28;20634;-46
2022/01/23 05:56:39;;;;;;;11.27;8.40;;;14.10;59.80;15.30;102653.00;;;;5027405;28;20561;-45
2022/01/23 05:59:05;;;;;;;9.70;8.60;;;14.10;60.00;15.30;102655.00;;;;5027464;28;20167;-46
2022/01/23 06:01:30;;;;;;;11.03;8.10;;;14.10;59.70;15.30;102657.00;;;;5027120;28;20163;-45
2022/01/23 06:03:56;;;;;;;9.20;7.30;;;14.10;59.80;15.30;102650.00;;;;5027033;28;20169;-46
2022/01/23 06:06:22;;;;;;;7.90;7.20;;;14.10;59.70;15.30;102650.00;;;;5034482;28;20595;-46
2022/01/23 06:08:48;;;;;;;7.87;7.20;;;14.10;59.60;15.30;102663.00;;;;5046379;28;20206;-46
2022/01/23 06:11:13;;;;;;;7.57;6.87;;;14.10;59.90;15.30;102663.00;;;;5028561;28;20658;-46
2022/01/23 06:13:39;;;;;;;8.00;6.80;;;14.10;59.70;15.30;102664.00;;;;5043830;28;20170;-46
2022/01/23 06:16:05;;;;;;;6.97;6.37;;;14.10;59.80;15.20;102634.00;;;;5048078;28;20182;-47
2022/01/23 06:18:32;;;;;;;6.23;5.70;;;14.10;59.90;15.20;102652.00;;;;5063870;28;20241;-46
2022/01/23 06:20:58;;;;;;;6.67;5.97;;;14.10;60.00;15.20;102654.00;;;;5050390;28;20291;-46
2022/01/23 06:23:29;;;;;;;6.30;5.80;;;14.10;59.70;15.20;102662.00;;;;5049953;28;20155;-45
2022/01/23 06:25:54;;;;;;;7.20;6.50;;;14.00;60.00;15.20;102661.00;;;;5049078;28;20158;-46
2022/01/23 06:28:37;;;;;;;6.30;5.80;;;14.00;59.80;15.20;102655.00;;;;5045595;28;20247;-45
2022/01/23 06:31:03;;;;;;;6.07;5.57;;;14.10;59.90;15.20;102649.00;;;;5047395;28;20167;-46
2022/01/23 06:33:29;;;;;;;5.77;5.37;;;14.00;59.80;15.20;102654.00;;;;5045864;28;20178;-45
2022/01/23 06:35:54;;;;;;;5.80;5.30;;;14.10;59.90;15.20;102663.00;;;;5047045;28;20201;-45
2022/01/23 06:38:20;;;;;;;5.90;5.40;;;14.00;59.90;15.20;102652.00;;;;5047002;28;20727;-46
2022/01/23 06:40:46;;;;;;;5.63;5.23;;;14.00;59.80;15.20;102657.00;;;;5046582;28;20174;-46
2022/01/23 06:43:11;;;;;;;5.57;5.17;;;14.00;59.80;15.20;102654.00;;;;5046560;28;20173;-45
2022/01/23 06:45:37;;;;;;;5.47;5.00;;;14.00;59.80;15.20;102659.00;;;;5045459;28;20166;-46
2022/01/23 06:48:03;;;;;;;5.97;5.37;;;14.00;59.80;15.10;102668.00;;;;5049057;28;20865;-46
2022/01/23 06:50:29;;;;;;;5.37;4.97;;;14.00;60.10;15.10;102669.00;;;;5050544;28;20174;-47
2022/01/23 06:52:55;;;;;;;5.50;5.10;;;13.90;59.80;15.10;102671.00;;;;5050950;28;20736;-45
2022/01/23 06:55:20;;;;;;;5.70;5.13;;;13.90;60.40;15.10;102669.00;;;;5050376;28;20574;-46
2022/01/23 06:57:46;;;;;;;5.50;5.00;;;13.90;60.20;15.10;102685.00;;;;5050742;28;20210;-46
2022/01/23 07:00:12;;;;;;;5.20;4.80;;;13.90;60.20;15.10;102674.00;;;;5050796;28;20539;-45
2022/01/23 07:02:38;;;;;;;5.23;4.77;;;13.90;60.20;15.10;102667.00;;;;5050873;28;20185;-47
2022/01/23 07:05:04;;;;;;;5.10;4.73;;;13.90;60.20;15.10;102664.00;;;;5050712;28;20167;-46
2022/01/23 07:07:30;;;;;;;4.63;4.30;;;13.90;60.40;15.10;102686.00;;;;5050854;28;20198;-46
2022/01/23 07:09:55;;;;;;;4.70;4.30;;;13.90;60.20;15.10;102680.00;;;;5050455;28;20745;-46
2022/01/23 07:12:21;;;;;;;5.40;4.90;;;13.90;60.30;15.10;102693.00;;;;5050754;28;20182;-45
2022/01/23 07:14:47;;;;;;;4.90;4.50;;;13.90;60.20;15.10;102696.00;;;;5051789;28;20641;-46
2022/01/23 07:17:12;;;;;;;4.37;4.07;;;13.90;60.20;15.10;102691.00;;;;5051576;28;20213;-44
2022/01/23 07:19:38;;;;;;;4.87;4.47;;;13.90;60.20;15.00;102696.00;;;;5051083;28;20178;-45
2022/01/23 07:22:04;;;;;;;5.20;4.80;;;13.90;60.20;15.00;102691.00;;;;5050739;28;20217;-46
2022/01/23 07:24:30;;;;;;;5.00;4.60;;;13.90;60.20;15.00;102695.00;;;;5050746;28;20232;-45
2022/01/23 07:26:58;;;;;;;4.77;4.33;;;13.80;60.30;15.00;102691.00;;;;5055469;28;20191;-46
2022/01/23 07:29:24;;;;;;;4.57;4.27;;;13.80;60.10;15.00;102696.00;;;;5057522;28;20182;-45
2022/01/23 07:32:06;;;;;;;5.10;4.70;;;13.80;60.10;15.00;102696.00;;;;5053503;28;20212;-46
2022/01/23 07:34:31;;;;;;;4.73;4.33;;;13.80;60.10;15.00;102694.00;;;;5050476;28;20151;-45
2022/01/23 07:36:57;;;;;;;4.43;4.13;;;13.80;60.10;15.00;102709.00;;;;5050237;28;20202;-47
2022/01/23 07:39:23;;;;;;;4.50;4.20;;;13.80;60.10;15.00;102691.00;;;;5050840;28;20166;-45
2022/01/23 07:41:48;;;;;;;4.23;3.93;;;13.80;60.10;15.00;102627.00;;;;5051360;28;20230;-47
2022/01/23 07:44:14;;;;;;;4.60;4.20;;;13.80;60.30;15.00;102705.00;;;;5050427;28;20166;-46
2022/01/23 07:46:40;;;;;;;4.80;4.40;;;13.80;60.40;15.00;102704.00;;;;5050185;28;20694;-46
2022/01/23 07:49:06;;;;;;;4.60;4.20;;;13.80;60.30;15.00;102716.00;;;;5050180;28;20845;-46
2022/01/23 07:51:31;;;;;;;4.33;4.03;;;13.70;60.30;14.90;102715.00;;;;5049944;28;20170;-47
2022/01/23 07:53:57;;;;;;;4.33;4.03;;;13.70;60.10;14.90;102647.00;;;;5049907;28;20228;-44
2022/01/23 07:56:23;;;;;;;4.80;4.40;;;13.70;60.30;14.90;102712.00;;;;5049450;28;20201;-46
2022/01/23 07:58:48;;;;;;;4.33;4.03;;;13.70;60.30;14.90;102726.00;;;;5058978;28;20194;-46
2022/01/23 08:01:14;;;;;;;4.67;4.27;;;13.70;60.30;14.90;102716.00;;;;5067722;28;20818;-46
2022/01/23 08:03:40;;;;;;;4.40;4.10;;;13.70;60.30;14.90;102725.00;;;;5051632;28;20185;-47
2022/01/23 08:06:06;;;;;;;4.53;4.23;;;13.70;61.10;14.90;102731.00;;;;5051138;28;20463;-46
2022/01/23 08:08:32;;;;;;;4.57;4.17;;;13.70;60.90;14.90;102730.00;;;;5051054;28;20198;-46
2022/01/23 08:10:57;;;;;;;4.90;4.50;;;13.70;60.60;14.90;102704.00;;;;5050317;28;20185;-47
2022/01/23 08:13:23;;;;;;;4.80;4.40;;;13.70;60.90;14.90;102737.00;;;;5032596;28;20171;-47
2022/01/23 08:15:49;;;;;;;4.50;4.10;;;13.70;61.10;14.90;102726.00;;;;5049838;28;20182;-47
2022/01/23 08:18:15;;;;;;;4.97;4.57;;;13.70;60.80;14.90;102731.00;;;;5049549;28;20194;-45
2022/01/23 08:20:41;;;;;;;4.20;3.90;;;13.80;60.50;14.90;102728.00;;;;5049233;28;20170;-45
2022/01/23 08:23:07;;;;;;;4.57;4.10;;;14.00;60.30;15.00;102736.00;;;;5048929;28;20174;-46
2022/01/23 08:25:32;;;;;;;4.17;3.87;;;14.30;59.90;15.10;102740.00;;;;5049338;28;20580;-46
2022/01/23 08:27:58;;;;;;;4.87;4.37;;;14.50;59.50;15.20;102738.00;;;;5048994;28;20247;-46
2022/01/23 08:30:24;;;;;;;4.47;4.10;;;14.60;59.20;15.20;102730.00;;;;5048942;28;20891;-46
2022/01/23 08:32:50;;;;;;;4.60;4.20;;;14.80;59.20;15.30;102744.00;;;;5048321;28;20174;-46
2022/01/23 08:35:16;;;;;;;4.10;3.80;;;14.80;58.90;15.40;102746.00;;;;5049211;28;20179;-46
2022/01/23 08:37:42;;;;;;;4.63;4.23;;;14.90;58.90;15.50;102750.00;;;;5049067;28;20290;-46
2022/01/23 08:40:17;;;;;;;4.33;3.93;;;15.00;58.90;15.50;102763.00;;;;5048851;28;20220;-48
2022/01/23 08:42:42;;;;;;;4.00;3.70;;;15.00;58.90;15.60;102765.00;;;;5049482;28;20209;-46
2022/01/23 08:45:08;;;;;;;3.90;3.60;;;15.00;58.90;15.60;102758.00;;;;5060630;28;20162;-46
2022/01/23 08:47:34;;;;;;;4.10;3.80;;;15.10;58.90;15.70;102771.00;;;;5062113;28;20217;-47
2022/01/23 08:50:00;;;;;;;4.23;3.87;;;15.10;58.80;15.70;102770.00;;;;5056384;28;20719;-46
2022/01/23 08:52:25;;;;;;;4.40;4.03;;;15.20;58.80;15.80;102771.00;;;;5053903;28;20179;-46
2022/01/23 08:54:51;;;;;;;4.17;3.80;;;15.20;58.80;15.80;102773.00;;;;5048142;28;20193;-47
2022/01/23 08:57:20;;;;;;;4.07;3.77;;;15.20;58.70;15.90;102783.00;;;;5048777;28;20228;-47
2022/01/23 08:59:46;;;;;;;3.90;3.60;;;15.30;58.80;15.90;102777.00;;;;5048564;28;20181;-47
2022/01/23 09:02:12;;;;;;;4.00;3.70;;;15.30;58.70;15.90;102773.00;;;;5048498;28;20524;-46
2022/01/23 09:04:37;;;;;;;4.43;4.03;;;15.40;58.70;16.00;102740.00;;;;5054048;28;20185;-46
2022/01/23 09:07:03;;;;;;;4.63;3.90;;;15.40;59.00;16.00;102753.00;;;;5054794;28;20230;-45
2022/01/23 09:09:32;;;;;;;4.73;3.80;;;15.40;59.10;16.10;102759.00;;;;5051409;28;20178;-47
2022/01/23 09:12:03;;;;;;;4.27;3.50;;;15.50;59.20;16.10;102762.00;;;;5047592;28;20261;-46
2022/01/23 09:14:29;;;;;;;5.77;4.00;;;15.50;59.10;16.20;102765.00;;;;5049113;28;20263;-47
2022/01/23 09:16:55;;;;;;;5.43;3.70;;;15.60;59.20;16.20;102749.00;;;;5048356;28;20225;-49
2022/01/23 09:19:21;;;;;;;4.00;3.70;;;15.60;59.10;16.30;102751.00;;;;5048971;28;20267;-46
2022/01/23 09:21:50;;;;;;;4.10;3.80;;;15.70;59.20;16.30;102743.00;;;;5048976;28;20185;-46
2022/01/23 09:24:19;;;;;;;4.00;3.63;;;15.70;59.20;16.30;102750.00;;;;5048646;28;20181;-46
2022/01/23 09:26:52;;;;;;;5.43;3.70;;;15.70;59.50;16.30;102765.00;;;;5048372;28;20190;-46
2022/01/23 09:29:43;;;;;;;5.17;3.77;;;15.70;59.30;16.40;102761.00;;;;5046920;28;20224;-46
2022/01/23 09:32:13;;;;;;;4.20;3.80;;;15.80;59.20;16.40;102761.00;;;;5047305;28;21002;-47
2022/01/23 09:34:39;;;;;;;5.60;3.93;;;15.80;59.40;16.40;102753.00;;;;5038396;28;20258;-47
2022/01/23 09:37:07;;;;;;;6.57;4.03;;;15.80;59.40;16.50;102765.00;;;;5023100;28;20241;-47
2022/01/23 09:39:34;;;;;;;6.03;4.03;;;15.80;59.50;16.50;102755.00;;;;5020115;28;20236;-47
2022/01/23 09:42:15;;;;;;;5.83;3.87;;;15.80;59.40;16.50;102769.00;;;;5032685;28;20185;-46
2022/01/23 09:44:44;;;;;;;7.00;3.80;;;15.90;59.40;16.50;102759.00;;;;5048409;28;20198;-47
2022/01/23 09:47:14;;;;;;;7.97;4.13;;;15.90;59.30;16.50;102761.00;;;;5048686;28;20973;-46
2022/01/23 09:49:40;;;;;;;4.70;3.90;;;15.90;59.20;16.60;102764.00;;;;5049430;28;20230;-48
2022/01/23 09:52:07;;;;;;;3.90;3.60;;;15.90;59.10;16.60;102776.00;;;;5069779;28;20161;-47
2022/01/23 09:54:33;;;;;;;3.93;3.60;;;16.00;59.20;16.60;102765.00;;;;5059568;28;20182;-46
2022/01/23 09:57:04;;;;;;;4.20;3.80;;;16.00;59.10;16.70;102761.00;;;;5050248;28;20202;-46
2022/01/23 09:59:30;;;;;;;4.10;3.70;;;16.10;59.20;16.70;102769.00;;;;5029774;28;20674;-47
2022/01/23 10:01:56;;;;;;;5.50;4.00;;;16.00;59.10;16.70;102759.00;;;;5032126;28;20185;-46
2022/01/23 10:04:25;;;;;;;6.83;4.03;;;16.00;59.10;16.70;102761.00;;;;5037158;28;20293;-46
2022/01/23 10:06:52;;;;;;;6.87;4.07;;;16.00;59.30;16.70;102765.00;;;;5023088;28;20670;-46
2022/01/23 10:09:19;;;;;;;7.90;4.00;;;16.00;59.50;16.70;102769.00;;;;5028858;28;20170;-47
2022/01/23 10:11:46;;;;;;;4.40;3.87;;;16.00;59.40;16.80;102763.00;;;;5042215;28;20178;-46
2022/01/23 10:14:12;;;;;;;6.27;4.00;;;16.10;59.40;16.80;102773.00;;;;5045331;28;20174;-46
2022/01/23 10:16:37;;;;;;;5.07;3.63;;;16.10;59.50;16.80;102763.00;;;;5047090;28;20252;-45
2022/01/23 10:19:04;;;;;;;4.70;4.17;;;16.10;59.80;16.80;102778.00;;;;5045634;28;20585;-45
2022/01/23 10:21:32;;;;;;;5.63;3.57;;;16.00;59.80;16.80;102777.00;;;;5029376;28;20159;-46
2022/01/23 10:23:58;;;;;;;5.13;4.07;;;16.10;59.90;16.80;102778.00;;;;5029099;28;20258;-45
2022/01/23 10:26:49;;;;;;;4.20;3.70;;;16.10;59.80;16.80;102782.00;;;;5028009;28;20270;-47
2022/01/23 10:29:19;;;;;;;5.53;4.10;;;16.10;59.80;16.80;102778.00;;;;5028278;28;20190;-46
2022/01/23 10:32:05;;;;;;;4.40;4.10;;;16.20;59.80;16.90;102777.00;;;;5029969;28;20167;-45
2022/01/23 10:34:43;;;;;;;4.63;3.93;;;16.20;59.80;16.90;102788.00;;;;5031756;28;20229;-46
2022/01/23 10:37:09;;;;;;;4.73;4.17;;;16.30;59.80;16.90;102780.00;;;;5032816;28;20216;-48
2022/01/23 10:39:43;;;;;;;4.30;4.00;;;16.30;59.70;16.90;102773.00;;;;5049645;28;20175;-44
2022/01/23 10:47:48;;;;;;;5.07;3.90;;;16.30;59.20;17.00;102782.00;;;;5027919;28;20201;-47
2022/01/23 10:50:14;;;;;;;5.53;4.23;;;16.30;59.40;17.00;102779.00;;;;5014475;28;20185;-47
2022/01/23 10:52:47;;;;;;;7.50;4.10;;;16.30;59.50;17.00;102780.00;;;;5028712;28;20237;-46
2022/01/23 10:55:13;;;;;;;4.20;3.80;;;16.30;59.50;17.00;102775.00;;;;5020039;28;20183;-44
2022/01/23 10:57:44;;;;;;;4.40;4.00;;;16.30;59.50;17.00;102775.00;;;;5007916;28;20574;-45
2022/01/23 11:00:21;;;;;;;7.10;4.57;;;16.30;59.40;17.00;102769.00;;;;5008207;28;20179;-47
2022/01/23 11:02:47;;;;;;;5.00;4.20;;;16.30;59.40;17.00;102773.00;;;;5008599;28;20206;-45
2022/01/23 11:05:15;;;;;;;5.47;4.37;;;16.40;59.40;17.00;102770.00;;;;5008644;28;20200;-45
2022/01/23 11:07:43;;;;;;;4.80;4.20;;;16.40;60.10;17.10;102760.00;;;;5017172;28;20719;-46
2022/01/23 11:10:14;;;;;;;5.30;4.30;;;16.30;59.30;17.10;102766.00;;;;5027312;28;20182;-46
2022/01/23 11:17:22;;;;;;;6.17;4.10;;;16.40;59.20;17.10;102760.00;;;;5026597;28;20166;-45
2022/01/23 11:18:36;;;;;;;4.70;4.30;;;16.40;59.20;17.10;102759.00;;;;5028329;28;20218;-44
2022/01/23 11:21:16;;;;;;;4.40;4.03;;;16.50;59.20;17.10;102752.00;;;;5026900;28;20203;-48
2022/01/23 11:23:42;;;;;;;4.70;4.30;;;16.40;59.10;17.10;102753.00;;;;5016417;28;20180;-46
2022/01/23 11:26:11;;;;;;;4.70;4.30;;;16.40;59.00;17.10;102751.00;;;;5007420;28;20179;-46
2022/01/23 11:28:45;;;;;;;4.33;4.00;;;16.40;58.90;17.20;102739.00;;;;5008464;28;20299;-45
2022/01/23 11:31:18;;;;;;;4.50;4.10;;;16.50;59.10;17.20;102732.00;;;;5008457;28;20171;-46
2022/01/23 11:33:44;;;;;;;4.83;4.33;;;16.50;59.00;17.20;102736.00;;;;5008274;28;20187;-46
2022/01/23 11:36:10;;;;;;;4.87;3.80;;;16.50;59.00;17.20;102729.00;;;;5011626;28;20204;-45
2022/01/23 11:38:37;;;;;;;4.37;3.97;;;16.50;58.90;17.20;102731.00;;;;5010012;28;20254;-45
2022/01/23 11:55:35;;;;;;;7.43;4.60;;;16.60;60.40;17.30;102720.00;;;;5030439;28;20170;-45
2022/01/23 11:58:01;;;;;;;6.03;4.30;;;16.60;60.70;17.30;102730.00;;;;5031064;28;20211;-46
2022/01/23 12:00:32;;;;;;;4.80;4.40;;;16.60;60.70;17.30;102741.00;;;;5030844;28;20210;-46
2022/01/23 12:03:16;;;;;;;5.93;4.30;;;16.60;60.40;17.30;102744.00;;;;5030972;28;20229;-47
2022/01/23 12:05:49;;;;;;;7.30;4.60;;;16.60;60.10;17.30;102728.00;;;;5030433;28;20224;-47
2022/01/23 12:08:32;;;;;;;5.03;4.53;;;16.60;60.30;17.30;102724.00;;;;5029824;28;20199;-46
2022/01/23 12:11:53;;;;;;;7.47;4.53;;;16.60;60.40;17.40;102650.00;;;;5031123;28;20841;-47
2022/01/23 12:17:01;;;;;;;7.23;4.63;;;16.60;60.30;17.30;102721.00;;;;5048741;28;20285;-46
2022/01/23 12:19:40;;;;;;;5.13;4.47;;;16.60;60.30;17.30;102720.00;;;;5050839;28;20169;-45
2022/01/23 12:22:33;;;;;;;5.10;4.60;;;16.60;60.10;17.30;102721.00;;;;5050488;28;20641;-46
2022/01/23 12:25:10;;;;;;;5.30;4.80;;;16.70;59.90;17.40;102725.00;;;;5050499;28;20170;-46
2022/01/23 12:27:36;;;;;;;7.47;4.60;;;16.80;59.80;17.40;102719.00;;;;5050626;28;20289;-46
2022/01/23 12:30:15;;;;;;;5.03;4.50;;;16.80;59.80;17.40;102727.00;;;;5048531;28;20174;-45
2022/01/23 12:32:41;;;;;;;4.87;4.40;;;16.80;59.60;17.50;102715.00;;;;5043588;28;20183;-45
2022/01/23 12:35:08;;;;;;;4.67;4.20;;;16.80;59.50;17.50;102713.00;;;;5029739;28;20175;-45
2022/01/23 12:37:56;;;;;;;4.90;4.50;;;16.90;59.50;17.60;102712.00;;;;5029110;28;20232;-46
2022/01/23 12:40:23;;;;;;;4.90;4.40;;;16.90;59.30;17.50;102707.00;;;;5030127;28;20506;-46
2022/01/23 12:43:12;;;;;;;5.17;4.67;;;17.00;59.20;17.60;102707.00;;;;5030313;28;20182;-46
2022/01/23 12:46:02;;;;;;;5.20;4.63;;;16.90;59.10;17.30;102698.00;;;;5030392;28;20250;-47
2022/01/23 12:48:34;;;;;;;4.83;4.43;;;17.00;59.10;17.60;102708.00;;;;5030285;28;20278;-47
2022/01/23 12:51:17;;;;;;;5.13;4.63;;;17.00;59.00;17.60;102708.00;;;;5029582;28;20156;-47
2022/01/23 12:53:45;;;;;;;4.87;4.37;;;17.00;58.90;17.70;102699.00;;;;5029776;28;20262;-46
2022/01/23 12:56:40;;;;;;;4.83;4.40;;;17.00;58.80;17.70;102699.00;;;;5030147;28;20187;-45
2022/01/23 12:59:09;;;;;;;5.10;4.70;;;17.00;58.70;17.70;102696.00;;;;5030542;28;20155;-45
2022/01/23 13:01:36;;;;;;;4.97;4.57;;;17.00;58.60;17.70;102690.00;;;;5030423;28;20168;-47
2022/01/23 13:04:04;;;;;;;4.77;4.37;;;17.00;58.70;17.70;102708.00;;;;5030072;28;20175;-46
2022/01/23 13:06:48;;;;;;;5.33;4.47;;;17.00;58.70;17.70;102687.00;;;;5028760;28;20156;-46
2022/01/23 13:09:21;;;;;;;7.60;4.70;;;17.10;58.90;17.70;102681.00;;;;5040047;28;20147;-47
2022/01/23 13:15:44;;;;;;;7.13;4.77;;;17.00;59.20;17.70;102686.00;;;;5030481;28;20151;-46
2022/01/23 13:17:55;;;;;;;5.23;4.60;;;17.00;59.50;17.70;102684.00;;;;5018967;28;20230;-47
2022/01/23 13:32:11;;;;;;;4.80;4.40;;;17.00;59.50;17.70;102688.00;;;;5029405;28;20160;-47
2022/01/23 13:34:56;;;;;;;5.37;4.40;;;17.00;59.60;17.70;102679.00;;;;5029785;28;20659;-47
2022/01/23 13:37:25;;;;;;;5.30;4.60;;;16.90;59.50;17.70;102684.00;;;;5029442;28;20238;-46
2022/01/23 13:39:57;;;;;;;4.50;4.10;;;16.90;59.40;17.70;102684.00;;;;5028916;28;20189;-47
2022/01/23 13:42:42;;;;;;;4.70;4.30;;;17.00;59.40;17.70;102688.00;;;;5029091;28;20174;-47